Andersen AFB, Guam
Current Conditions -  °F | °C
As of 4:58 AM on Sunday 26 Oct 2014 (Local Time) from PGUA Reporting Station
Broken Clouds Broken Clouds  
Wind Chill: 80°   Ceiling: 4900
Heat Index: 86°   Visibility: 10mi
Dew Point: 76°   Wind: 12mph
Humidity: 88%   Direction: 60°ENE
Pressure: 29.86"   Gusts: NA
Location:  13.58°N, 144.92°E
Report Text: PGUA 251858Z AUTO 06010KT 10SM SCT014 SCT020 SCT032 BKN049 27/25 A2986 RMK AO2 SLP102 T02670246 $
Loading
Personal Weather Stations






























Interactive Weather Map
Tropical Storm Tracking
New forecast layout! Learn more

10-Day Weather Forecast

Advertisements
Track Severe Weather on mobile